Time;durP1;ratioP1;P1;durP2;ratioP2;P2;SDS_P1;SDS_P2;PMS_P1;PMS_P2;Temp;Humidity;BMP_temperature;BMP_pressure;BME280_temperature;BME280_humidity;BME280_pressure;Samples;Min_cycle;Max_cycle;Signal;HPM_P1;HPM_P2
2022/02/02 00:00:30;;;;;;;27.35;5.70;;;8.50;99.90;;;;;;5068951;28;20029;-60
2022/02/02 00:03:01;;;;;;;29.67;5.47;;;8.50;99.90;;;;;;5067277;28;20024;-59
2022/02/02 00:08:04;;;;;;;30.13;5.65;;;8.50;99.90;;;;;;5068883;28;20044;-59
2022/02/02 00:20:53;;;;;;;24.67;5.75;;;8.50;99.90;;;;;;5068168;28;20025;-60
2022/02/02 00:23:23;;;;;;;26.40;5.03;;;8.50;99.90;;;;;;5069045;28;20142;-59
2022/02/02 00:25:55;;;;;;;36.38;5.85;;;8.50;99.90;;;;;;5071275;28;20025;-59
2022/02/02 00:28:25;;;;;;;30.35;5.40;;;8.50;99.90;;;;;;5071160;28;20032;-59
2022/02/02 00:30:51;;;;;;;;;;;8.50;99.90;;;;;;5068766;28;20024;-59
2022/02/02 00:35:51;;;;;;;31.30;5.22;;;8.40;99.90;;;;;;5068347;28;20492;-59
2022/02/02 00:38:17;;;;;;;29.35;5.97;;;8.50;99.90;;;;;;5070981;28;20539;-59
2022/02/02 00:40:42;;;;;;;31.73;5.22;;;8.50;99.90;;;;;;5068090;28;20075;-59
2022/02/02 00:43:08;;;;;;;43.90;7.25;;;8.50;99.90;;;;;;5065218;28;20115;-60
2022/02/02 00:45:43;;;;;;;34.90;7.13;;;8.50;99.90;;;;;;5070608;28;20060;-60
2022/02/02 00:48:10;;;;;;;28.00;5.07;;;8.50;99.90;;;;;;5070594;28;20044;-59
2022/02/02 00:50:36;;;;;;;35.72;5.68;;;8.50;99.90;;;;;;5070494;28;20477;-59
2022/02/02 00:53:01;;;;;;;29.15;5.80;;;8.50;99.90;;;;;;5066753;28;20044;-59
2022/02/02 00:55:27;;;;;;;36.40;6.18;;;8.50;99.90;;;;;;5070289;28;20036;-59
2022/02/02 00:57:52;;;;;;;31.88;7.78;;;8.50;99.90;;;;;;5070253;28;20024;-59
2022/02/02 01:00:18;;;;;;;36.45;7.32;;;8.50;99.90;;;;;;5069075;28;20016;-59
2022/02/02 01:02:44;;;;;;;40.47;6.72;;;8.50;99.90;;;;;;5069958;28;20017;-59
2022/02/02 01:05:10;;;;;;;30.70;5.93;;;8.50;99.90;;;;;;5067501;28;20388;-59
2022/02/02 01:10:18;;;;;;;36.97;6.10;;;8.50;99.90;;;;;;5070310;28;20036;-59
2022/02/02 01:18:20;;;;;;;28.15;6.50;;;8.50;99.90;;;;;;5066358;28;20083;-59
2022/02/02 01:28:38;;;;;;;39.88;6.35;;;8.60;99.90;;;;;;5067869;28;20125;-59
2022/02/02 01:31:05;;;;;;;36.00;6.55;;;8.50;99.90;;;;;;5076145;28;20062;-60
2022/02/02 01:33:31;;;;;;;37.45;7.72;;;8.50;99.90;;;;;;5077937;28;20397;-59
2022/02/02 01:35:58;;;;;;;33.03;6.47;;;8.50;99.90;;;;;;5078108;28;20024;-59
2022/02/02 01:38:27;;;;;;;35.50;6.13;;;8.50;99.90;;;;;;5071329;28;20062;-59
2022/02/02 01:40:58;;;;;;;34.78;6.05;;;8.50;99.90;;;;;;5062667;28;20020;-59
2022/02/02 01:43:29;;;;;;;28.08;5.97;;;8.50;99.90;;;;;;5062741;28;20092;-59
2022/02/02 01:46:00;;;;;;;41.67;6.13;;;8.50;99.90;;;;;;5060960;28;20024;-59
2022/02/02 01:51:12;;;;;;;34.33;6.35;;;8.50;99.90;;;;;;5064484;28;20063;-59
2022/02/02 01:56:05;;;;;;;30.98;6.45;;;8.40;99.90;;;;;;5064772;28;20037;-59
2022/02/02 02:00:57;;;;;;;34.25;6.18;;;8.40;99.90;;;;;;5063875;28;20511;-60
2022/02/02 02:03:22;;;;;;;29.33;5.55;;;8.40;99.90;;;;;;5065116;28;20033;-59
2022/02/02 02:05:48;;;;;;;38.75;6.20;;;8.40;99.90;;;;;;5062575;28;20508;-59
2022/02/02 02:08:15;;;;;;;38.55;7.53;;;8.40;99.90;;;;;;5065697;28;20029;-59
2022/02/02 02:10:40;;;;;;;32.17;6.57;;;8.40;99.90;;;;;;5063646;28;20025;-60
2022/02/02 02:13:12;;;;;;;29.05;5.65;;;8.40;99.90;;;;;;5062100;28;20049;-59
2022/02/02 02:15:40;;;;;;;30.90;5.68;;;8.40;99.90;;;;;;5063972;28;20021;-59
2022/02/02 02:18:06;;;;;;;34.97;6.07;;;8.30;99.90;;;;;;5064134;28;20027;-59
2022/02/02 02:20:32;;;;;;;37.67;6.45;;;8.30;99.90;;;;;;5065627;28;20710;-59
2022/02/02 02:22:57;;;;;;;32.13;5.90;;;8.30;99.90;;;;;;5063474;28;20016;-59
2022/02/02 02:25:26;;;;;;;32.38;6.18;;;8.30;99.90;;;;;;5066290;28;20081;-59
2022/02/02 02:27:55;;;;;;;37.80;8.02;;;8.30;99.90;;;;;;5060598;28;20469;-59
2022/02/02 02:33:37;;;;;;;36.92;6.47;;;8.20;99.90;;;;;;5026216;28;20044;-59
2022/02/02 02:58:17;;;;;;;35.30;5.93;;;8.20;99.90;;;;;;5063015;28;20059;-59
2022/02/02 03:14:09;;;;;;;34.20;5.97;;;8.20;99.90;;;;;;5060329;28;20048;-60
2022/02/02 03:29:44;;;;;;;32.80;6.65;;;8.20;99.90;;;;;;5062910;28;20051;-60
2022/02/02 03:31:12;;;;;;;34.67;6.35;;;8.30;99.90;;;;;;5069126;28;20027;-59
2022/02/02 04:05:42;;;;;;;28.55;5.35;;;8.30;99.90;;;;;;5063051;28;20504;-59
2022/02/02 04:10:47;;;;;;;29.33;5.07;;;8.40;99.90;;;;;;5060012;28;20028;-59
2022/02/02 04:13:23;;;;;;;27.73;5.78;;;8.40;99.90;;;;;;5064912;28;20040;-59
2022/02/02 04:37:29;;;;;;;30.55;7.53;;;8.30;99.90;;;;;;5071398;28;20017;-59
2022/02/02 04:57:04;;;;;;;31.27;5.40;;;8.40;99.90;;;;;;5070684;28;20016;-59
2022/02/02 04:59:31;;;;;;;35.58;5.88;;;8.40;99.90;;;;;;5067727;28;20073;-60
2022/02/02 05:03:02;;;;;;;32.88;5.88;;;8.40;99.90;;;;;;5070268;28;20035;-59
2022/02/02 05:05:32;;;;;;;35.75;6.13;;;8.40;99.90;;;;;;5064559;28;20021;-60
2022/02/02 05:08:04;;;;;;;29.48;4.65;;;8.40;99.90;;;;;;5069107;28;20070;-60
2022/02/02 05:53:04;;;;;;;29.50;4.80;;;8.30;99.90;;;;;;5067966;28;20032;-60
2022/02/02 05:55:37;;;;;;;29.25;4.90;;;8.20;99.90;;;;;;5060341;28;20103;-59
2022/02/02 05:58:06;;;;;;;27.02;6.30;;;8.30;99.90;;;;;;5057635;28;20039;-60
2022/02/02 06:00:33;;;;;;;31.98;5.70;;;8.30;99.90;;;;;;5063972;28;20031;-60
2022/02/02 06:03:01;;;;;;;30.67;5.28;;;8.20;99.90;;;;;;5063553;28;20017;-59
2022/02/02 06:05:29;;;;;;;35.70;5.70;;;8.20;99.90;;;;;;5067774;28;20415;-60
2022/02/02 06:07:56;;;;;;;28.85;4.93;;;8.20;99.90;;;;;;5054553;28;20032;-59
2022/02/02 06:10:23;;;;;;;31.67;4.90;;;8.20;99.90;;;;;;5066340;28;20492;-60
2022/02/02 06:12:53;;;;;;;28.30;5.53;;;8.20;99.90;;;;;;5064696;28;20044;-59
2022/02/02 06:15:19;;;;;;;28.73;4.95;;;8.20;99.90;;;;;;5064101;28;20094;-59
2022/02/02 06:17:50;;;;;;;27.92;5.47;;;8.20;99.90;;;;;;5064413;28;20041;-60
2022/02/02 06:20:16;;;;;;;29.65;5.50;;;8.20;99.90;;;;;;5068744;28;20178;-59
2022/02/02 06:22:50;;;;;;;26.15;4.78;;;8.10;99.90;;;;;;5066226;28;20043;-59
2022/02/02 06:25:32;;;;;;;35.20;5.60;;;8.10;99.90;;;;;;5065940;28;20404;-59
2022/02/02 06:28:05;;;;;;;33.00;5.13;;;8.10;99.90;;;;;;5054662;28;20029;-59
2022/02/02 06:30:33;;;;;;;31.75;5.00;;;8.10;99.90;;;;;;5068173;28;20032;-60
2022/02/02 06:33:11;;;;;;;29.27;4.60;;;8.00;99.90;;;;;;5072546;28;20027;-60
2022/02/02 06:35:37;;;;;;;31.00;5.38;;;8.00;99.90;;;;;;5071771;28;20170;-60
2022/02/02 06:38:04;;;;;;;27.40;4.32;;;8.00;99.90;;;;;;5071410;28;20524;-60
2022/02/02 06:40:29;;;;;;;27.77;5.28;;;7.90;99.90;;;;;;5072580;28;20032;-59
2022/02/02 06:42:56;;;;;;;22.05;5.05;;;7.90;99.90;;;;;;5071439;28;20039;-60
2022/02/02 06:45:23;;;;;;;26.08;4.93;;;7.90;99.90;;;;;;5072825;28;20024;-59
2022/02/02 06:47:49;;;;;;;25.02;4.28;;;7.90;99.90;;;;;;5072749;28;20044;-60
2022/02/02 06:50:22;;;;;;;33.08;5.07;;;7.90;99.90;;;;;;5070306;28;20052;-60
2022/02/02 06:52:54;;;;;;;24.45;4.32;;;7.80;99.90;;;;;;5071415;28;20499;-59
2022/02/02 06:55:30;;;;;;;22.08;3.75;;;7.80;99.90;;;;;;5070153;28;20060;-59
2022/02/02 06:58:16;;;;;;;24.20;5.07;;;7.80;99.90;;;;;;5072094;28;20021;-59
2022/02/02 07:03:45;;;;;;;;;;;7.80;99.90;;;;;;5072856;28;20568;-60
2022/02/02 07:06:24;;;;;;;22.58;4.53;;;7.70;99.90;;;;;;5072481;28;19950;-59
2022/02/02 07:09:15;;;;;;;26.27;4.40;;;7.60;99.90;;;;;;5072713;28;20028;-60
2022/02/02 07:17:46;;;;;;;20.77;3.90;;;7.70;99.90;;;;;;5071039;28;20094;-60
2022/02/02 07:20:21;;;;;;;19.67;3.83;;;7.70;99.90;;;;;;5070547;28;20025;-59
2022/02/02 07:23:13;;;;;;;23.30;4.30;;;7.70;99.90;;;;;;5069969;28;20105;-59
2022/02/02 07:26:02;;;;;;;17.88;3.17;;;7.70;99.90;;;;;;5069213;28;20055;-60
2022/02/02 07:28:35;;;;;;;19.70;3.38;;;7.70;99.90;;;;;;5069841;28;20081;-59
2022/02/02 07:31:36;;;;;;;22.70;4.93;;;7.70;99.90;;;;;;5072449;28;20405;-60
2022/02/02 07:34:20;;;;;;;20.30;3.90;;;7.70;99.90;;;;;;5071441;28;20064;-59
2022/02/02 07:36:50;;;;;;;14.77;3.20;;;7.70;99.90;;;;;;5072258;28;20032;-59
2022/02/02 07:39:17;;;;;;;18.00;3.90;;;7.70;99.90;;;;;;5072160;28;20020;-59
2022/02/02 07:41:50;;;;;;;20.75;3.88;;;7.70;99.90;;;;;;5072026;28;20111;-59
2022/02/02 07:44:20;;;;;;;18.73;3.47;;;7.80;99.90;;;;;;5072233;28;20081;-59
2022/02/02 07:46:46;;;;;;;;;;;7.70;99.90;;;;;;5068842;28;20017;-60
2022/02/02 07:49:35;;;;;;;25.48;5.20;;;7.70;99.90;;;;;;5071537;28;19909;-59
2022/02/02 07:52:02;;;;;;;25.20;4.05;;;7.70;99.90;;;;;;5071022;28;20384;-59
2022/02/02 07:54:33;;;;;;;26.90;4.25;;;7.80;99.90;;;;;;5063880;28;20052;-59
2022/02/02 07:57:00;;;;;;;26.45;4.93;;;7.80;99.90;;;;;;5067400;28;20017;-60
2022/02/02 07:59:39;;;;;;;19.83;5.38;;;7.80;99.90;;;;;;5070502;28;20028;-60
2022/02/02 08:02:05;;;;;;;27.33;5.30;;;7.80;99.90;;;;;;5072373;28;20016;-59
2022/02/02 08:04:31;;;;;;;24.90;4.68;;;7.90;99.90;;;;;;5074098;28;20017;-59
2022/02/02 08:06:58;;;;;;;19.83;3.88;;;7.90;99.90;;;;;;5075211;28;20020;-60
2022/02/02 08:09:36;;;;;;;27.55;4.50;;;7.90;99.90;;;;;;5075529;28;20046;-59
2022/02/02 08:12:03;;;;;;;29.15;5.40;;;7.90;99.90;;;;;;5073200;28;20118;-60
2022/02/02 08:14:31;;;;;;;28.30;5.28;;;7.90;99.90;;;;;;5074516;28;20041;-60
2022/02/02 08:16:57;;;;;;;24.25;3.60;;;7.90;99.90;;;;;;5073028;28;20090;-59
2022/02/02 08:19:34;;;;;;;30.17;5.47;;;7.90;99.90;;;;;;5073519;28;20366;-59
2022/02/02 08:22:00;;;;;;;26.60;3.95;;;8.00;99.90;;;;;;5074991;28;20029;-59
2022/02/02 08:24:26;;;;;;;23.52;4.82;;;8.00;99.90;;;;;;5075141;28;20431;-59
2022/02/02 08:26:52;;;;;;;27.00;4.25;;;8.00;99.90;;;;;;5074590;28;20025;-60
2022/02/02 08:29:18;;;;;;;23.05;4.70;;;8.00;99.90;;;;;;5089236;28;20039;-59
2022/02/02 08:31:44;;;;;;;27.38;4.97;;;8.00;99.90;;;;;;5081545;28;20108;-59
2022/02/02 08:34:11;;;;;;;24.27;4.65;;;8.00;99.90;;;;;;5074966;28;20070;-59
2022/02/02 08:36:39;;;;;;;26.08;5.90;;;8.00;99.90;;;;;;5074384;28;20063;-59
2022/02/02 08:41:53;;;;;;;23.55;4.13;;;8.10;99.90;;;;;;5074489;28;20024;-59
2022/02/02 08:44:28;;;;;;;31.13;5.10;;;8.20;99.90;;;;;;5072374;28;20021;-60
2022/02/02 08:47:02;;;;;;;22.08;3.92;;;8.30;99.90;;;;;;5072646;28;20107;-60
2022/02/02 08:49:31;;;;;;;29.20;5.05;;;8.30;99.90;;;;;;5072597;28;20028;-60
2022/02/02 08:51:56;;;;;;;31.63;5.50;;;8.30;99.90;;;;;;5072924;28;20346;-60
2022/02/02 08:54:44;;;;;;;19.35;3.78;;;8.40;99.90;;;;;;5073845;28;20111;-59
2022/02/02 08:58:08;;;;;;;19.40;3.92;;;8.40;99.90;;;;;;5074326;28;20052;-60
2022/02/02 09:00:06;;;;;;;21.83;4.32;;;8.50;99.90;;;;;;5061788;28;20056;-60
2022/02/02 09:02:33;;;;;;;22.83;4.00;;;8.50;99.90;;;;;;5074409;28;20056;-60
2022/02/02 09:05:20;;;;;;;21.42;4.03;;;8.60;99.90;;;;;;5074303;28;20100;-60
2022/02/02 09:07:50;;;;;;;26.50;6.53;;;8.60;99.90;;;;;;5074266;28;20369;-59
2022/02/02 09:20:00;;;;;;;;;;;8.70;99.90;;;;;;5074575;28;20040;-60
2022/02/02 09:24:21;;;;;;;26.45;4.32;;;9.00;99.90;;;;;;5071727;28;20089;-59
2022/02/02 09:34:50;;;;;;;24.35;4.95;;;9.50;99.90;;;;;;5074367;28;20021;-60
2022/02/02 09:37:17;;;;;;;21.25;4.28;;;9.60;99.90;;;;;;5073191;28;20033;-60
2022/02/02 09:39:48;;;;;;;18.63;4.40;;;9.70;99.90;;;;;;5073570;28;20062;-60
2022/02/02 09:42:18;;;;;;;24.92;4.95;;;9.90;99.90;;;;;;5073510;28;20083;-60
2022/02/02 09:44:45;;;;;;;28.42;4.60;;;9.90;99.90;;;;;;5073849;28;20012;-59
2022/02/02 09:49:47;;;;;;;29.23;4.97;;;10.20;99.90;;;;;;5073803;28;20501;-60
2022/02/02 09:52:16;;;;;;;25.17;4.70;;;10.30;99.90;;;;;;5073375;28;20028;-60
2022/02/02 09:55:45;;;;;;;27.33;5.50;;;10.40;99.90;;;;;;5073457;28;20048;-61
2022/02/02 10:05:30;;;;;;;27.15;5.30;;;10.80;99.90;;;;;;5073662;28;20082;-60
2022/02/02 10:11:00;;;;;;;17.88;3.83;;;10.80;99.90;;;;;;5073317;28;20029;-60
2022/02/02 10:14:03;;;;;;;24.98;4.13;;;10.70;99.90;;;;;;5072851;28;20055;-60
2022/02/02 10:16:29;;;;;;;26.67;5.43;;;10.70;99.90;;;;;;5073351;28;20020;-60
2022/02/02 10:19:32;;;;;;;27.02;4.47;;;10.60;99.90;;;;;;5072927;28;20090;-60
2022/02/02 10:21:58;;;;;;;17.92;4.35;;;10.50;99.90;;;;;;5072750;28;20119;-60
2022/02/02 10:24:43;;;;;;;25.65;5.13;;;10.50;99.90;;;;;;5072872;28;20104;-60
2022/02/02 10:27:27;;;;;;;27.63;4.13;;;10.50;99.90;;;;;;5071477;28;20051;-60
2022/02/02 10:29:53;;;;;;;24.17;4.80;;;10.40;99.90;;;;;;5072709;28;20496;-59
2022/02/02 10:32:36;;;;;;;28.85;5.18;;;10.30;99.90;;;;;;5072799;28;20075;-60
2022/02/02 10:35:04;;;;;;;23.45;4.05;;;10.30;99.90;;;;;;5072674;28;20025;-60
2022/02/02 10:37:31;;;;;;;18.98;4.05;;;10.30;99.90;;;;;;5070497;28;20023;-60
2022/02/02 10:39:57;;;;;;;25.90;4.38;;;10.50;99.90;;;;;;5071316;28;20032;-60
2022/02/02 10:42:38;;;;;;;22.23;4.25;;;10.50;99.50;;;;;;5072725;28;20509;-60
2022/02/02 10:45:20;;;;;;;32.95;5.35;;;10.60;99.50;;;;;;5087987;28;20375;-60
2022/02/02 10:47:49;;;;;;;27.23;4.43;;;10.70;99.30;;;;;;5072859;28;20024;-60
2022/02/02 10:50:55;;;;;;;25.40;5.40;;;10.90;99.10;;;;;;5063133;28;20425;-60
2022/02/02 10:53:31;;;;;;;20.65;4.15;;;11.10;98.60;;;;;;5050283;28;20079;-60
2022/02/02 10:56:20;;;;;;;21.48;4.32;;;11.30;97.90;;;;;;5052448;28;20021;-60
2022/02/02 11:06:38;;;;;;;19.75;4.68;;;14.30;94.80;;;;;;5071613;28;20044;-60
2022/02/02 11:09:22;;;;;;;16.63;4.03;;;15.20;93.50;;;;;;5070767;28;20040;-61
2022/02/02 11:11:51;;;;;;;24.58;4.85;;;16.80;89.70;;;;;;5067786;28;20128;-61
2022/02/02 11:14:44;;;;;;;23.98;4.70;;;17.80;81.50;;;;;;5072054;28;20048;-61
2022/02/02 11:17:23;;;;;;;20.05;3.67;;;18.40;75.20;;;;;;5072203;28;20034;-61
2022/02/02 11:19:54;;;;;;;16.83;3.20;;;17.80;73.40;;;;;;5072375;28;20087;-60
2022/02/02 11:22:32;;;;;;;15.68;3.58;;;18.20;75.10;;;;;;5072357;28;20111;-61
2022/02/02 11:25:04;;;;;;;14.13;3.70;;;18.80;72.90;;;;;;5072214;28;20020;-61
2022/02/02 11:27:34;;;;;;;12.40;3.75;;;19.40;70.20;;;;;;5072270;28;20024;-61
2022/02/02 11:30:05;;;;;;;13.98;3.58;;;19.60;67.60;;;;;;5072259;28;20078;-61
2022/02/02 11:32:45;;;;;;;18.08;4.22;;;20.20;66.00;;;;;;5072478;28;20115;-61
2022/02/02 11:35:41;;;;;;;18.42;4.60;;;20.90;63.60;;;;;;5072099;28;20021;-61
2022/02/02 11:38:18;;;;;;;14.00;3.78;;;20.50;61.70;;;;;;5075898;28;20490;-61
2022/02/02 11:41:23;;;;;;;17.88;4.30;;;20.20;61.40;;;;;;5075789;28;20387;-61
2022/02/02 11:44:07;;;;;;;16.00;4.75;;;19.50;62.20;;;;;;5055735;28;20021;-61
2022/02/02 11:47:05;;;;;;;18.50;3.63;;;19.40;64.00;;;;;;5055813;28;20048;-61
2022/02/02 11:49:52;;;;;;;14.77;3.45;;;19.40;63.00;;;;;;5056680;28;20024;-61
2022/02/02 11:52:44;;;;;;;18.92;4.60;;;20.40;61.90;;;;;;5055909;28;20426;-61
2022/02/02 11:55:12;;;;;;;14.80;3.38;;;21.60;58.60;;;;;;5062101;28;20081;-61
2022/02/02 11:57:57;;;;;;;12.27;2.80;;;21.10;57.60;;;;;;5073357;28;20103;-61
2022/02/02 12:08:29;;;;;;;12.45;2.90;;;24.60;51.10;;;;;;5044457;28;20063;-61
2022/02/02 12:58:24;;;;;;;11.15;2.92;;;27.90;44.00;;;;;;5072960;28;20024;-62
2022/02/02 13:03:33;;;;;;;8.98;3.08;;;29.30;41.70;;;;;;5058980;28;20052;-62
2022/02/02 13:05:59;;;;;;;10.75;2.95;;;29.80;41.00;;;;;;5071542;28;20716;-62
2022/02/02 13:08:24;;;;;;;10.20;2.70;;;30.20;40.40;;;;;;5071877;28;20488;-61
2022/02/02 13:10:50;;;;;;;13.65;4.03;;;30.50;40.20;;;;;;5072037;28;20127;-61
2022/02/02 13:13:24;;;;;;;9.40;2.72;;;30.80;38.40;;;;;;5071832;28;20110;-61
2022/02/02 13:16:00;;;;;;;10.75;3.35;;;30.90;38.40;;;;;;5071440;28;20370;-61
2022/02/02 13:18:43;;;;;;;7.78;2.40;;;31.20;38.20;;;;;;5072283;28;20013;-62
2022/02/02 13:27:16;;;;;;;8.85;3.33;;;31.70;37.60;;;;;;5071971;28;20028;-62
2022/02/02 13:35:21;;;;;;;10.93;3.38;;;32.40;36.60;;;;;;5036164;28;20141;-62
2022/02/02 13:38:15;;;;;;;8.55;2.45;;;32.40;36.70;;;;;;5052010;28;20533;-62
2022/02/02 13:42:38;;;;;;;6.57;2.42;;;32.60;36.80;;;;;;5073155;28;20028;-61
2022/02/02 13:43:52;;;;;;;8.88;2.83;;;32.70;36.80;;;;;;5071166;28;20024;-61
2022/02/02 13:46:38;;;;;;;7.70;2.97;;;33.00;36.70;;;;;;5061453;28;20059;-59
2022/02/02 13:54:48;;;;;;;8.48;3.10;;;32.80;34.80;;;;;;5042816;28;20087;-59
2022/02/02 14:05:56;;;;;;;10.68;2.92;;;32.00;35.50;;;;;;5048029;28;20067;-59
2022/02/02 14:33:05;;;;;;;6.90;2.65;;;30.20;37.30;;;;;;5053471;28;20130;-59
2022/02/02 14:35:44;;;;;;;9.52;2.88;;;29.80;37.90;;;;;;5028177;28;20079;-59
2022/02/02 14:38:10;;;;;;;7.55;2.50;;;29.60;38.30;;;;;;5063684;28;20028;-59
2022/02/02 14:40:45;;;;;;;8.88;3.58;;;29.50;38.40;;;;;;5072366;28;20046;-59
2022/02/02 14:43:14;;;;;;;9.38;4.43;;;29.40;38.90;;;;;;5072088;28;20021;-60
2022/02/02 14:45:45;;;;;;;;;;;29.10;38.40;;;;;;5055354;28;20028;-59
2022/02/02 14:48:36;;;;;;;8.70;4.07;;;28.90;38.60;;;;;;5070283;28;20361;-59
2022/02/02 14:53:56;;;;;;;9.70;3.10;;;28.20;39.30;;;;;;5067276;28;20032;-59
2022/02/02 14:56:45;;;;;;;8.63;3.03;;;28.10;39.80;;;;;;5062644;28;20044;-59
2022/02/02 15:24:05;;;;;;;9.20;2.90;;;23.60;44.10;;;;;;5064890;28;20040;-59
2022/02/02 15:31:48;;;;;;;10.68;3.03;;;21.20;47.30;;;;;;5075685;28;20028;-58
2022/02/02 15:34:20;;;;;;;7.45;2.25;;;20.50;48.50;;;;;;5075272;28;20037;-58
2022/02/02 15:39:14;;;;;;;8.52;2.45;;;19.20;50.50;;;;;;5061669;28;20025;-58
2022/02/02 15:42:35;;;;;;;10.70;2.30;;;18.60;51.50;;;;;;5027538;28;20032;-58
2022/02/02 16:03:37;;;;;;;8.85;2.17;;;16.10;56.70;;;;;;5072057;28;20021;-61
2022/02/02 16:06:13;;;;;;;11.40;2.17;;;15.80;57.10;;;;;;5067736;28;20024;-61
2022/02/02 16:08:40;;;;;;;9.93;2.30;;;15.70;57.80;;;;;;5070375;28;20166;-61
2022/02/02 16:13:43;;;;;;;8.23;2.28;;;15.30;58.50;;;;;;5069386;28;20032;-61
2022/02/02 16:16:15;;;;;;;9.00;2.20;;;15.20;59.00;;;;;;5070669;28;20016;-61
2022/02/02 16:18:52;;;;;;;8.73;2.13;;;15.10;59.50;;;;;;5075605;28;20468;-60
2022/02/02 16:37:40;;;;;;;7.95;2.17;;;13.50;63.00;;;;;;5069586;28;20025;-61
2022/02/02 16:40:08;;;;;;;12.07;2.50;;;13.40;63.60;;;;;;5070518;28;20032;-60
2022/02/02 16:45:20;;;;;;;9.85;2.25;;;13.10;64.40;;;;;;5072149;28;20105;-61
2022/02/02 16:47:46;;;;;;;11.10;2.65;;;12.90;65.00;;;;;;5072212;28;20038;-61
2022/02/02 16:50:22;;;;;;;12.93;2.35;;;12.80;65.50;;;;;;5073412;28;20821;-61
2022/02/02 16:52:52;;;;;;;11.02;2.47;;;12.70;65.90;;;;;;5072686;28;20048;-60
2022/02/02 16:55:32;;;;;;;12.75;3.30;;;12.60;66.20;;;;;;5072900;28;20103;-61
2022/02/02 16:58:12;;;;;;;9.35;2.30;;;12.50;66.60;;;;;;5060977;28;20029;-61
2022/02/02 17:28:55;;;;;;;9.27;2.47;;;11.60;71.70;;;;;;5070994;28;20035;-61
2022/02/02 17:30:47;;;;;;;9.68;2.42;;;11.60;72.20;;;;;;5055422;28;20032;-60
2022/02/02 17:33:21;;;;;;;7.35;2.50;;;11.40;72.80;;;;;;5073783;28;20547;-61
2022/02/02 17:40:58;;;;;;;9.35;2.42;;;11.30;74.30;;;;;;5074078;28;20029;-61
2022/02/02 18:03:07;;;;;;;8.73;3.03;;;11.20;77.50;;;;;;5072705;28;20063;-61
2022/02/02 18:16:34;;;;;;;7.55;3.33;;;10.90;79.10;;;;;;5072575;28;20404;-60
2022/02/02 18:18:51;;;;;;;7.88;2.80;;;10.90;79.30;;;;;;5073055;28;20030;-60
2022/02/02 18:21:19;;;;;;;11.18;3.97;;;10.80;79.60;;;;;;5071417;28;20032;-60
2022/02/02 18:23:58;;;;;;;8.93;3.72;;;10.90;80.00;;;;;;5069983;28;20114;-60
2022/02/02 18:26:44;;;;;;;5.80;3.55;;;10.90;80.20;;;;;;5070642;28;20020;-60
2022/02/02 18:29:17;;;;;;;7.90;3.25;;;10.90;80.30;;;;;;5062449;28;20032;-60
2022/02/02 18:32:04;;;;;;;7.95;3.42;;;10.90;80.70;;;;;;5065541;28;20017;-60
2022/02/02 18:34:39;;;;;;;7.10;3.53;;;10.80;81.00;;;;;;5063055;28;20040;-60
2022/02/02 18:45:37;;;;;;;6.03;3.25;;;10.70;82.10;;;;;;5057636;28;20040;-60
2022/02/02 18:48:15;;;;;;;5.35;2.92;;;10.70;82.50;;;;;;5064197;28;20105;-60
2022/02/02 19:01:31;;;;;;;6.63;2.40;;;10.60;83.70;;;;;;5068210;28;20074;-61
2022/02/02 19:55:41;;;;;;;8.23;4.25;;;10.10;90.20;;;;;;5068009;28;20035;-60
2022/02/02 20:03:57;;;;;;;10.13;6.90;;;10.00;91.40;;;;;;5052326;28;20047;-61
2022/02/02 20:06:37;;;;;;;9.85;5.90;;;10.00;91.90;;;;;;5052344;28;20075;-60
2022/02/02 20:11:41;;;;;;;9.82;6.53;;;9.90;93.00;;;;;;5072428;28;19916;-60
2022/02/02 20:14:08;;;;;;;8.55;6.35;;;9.80;93.70;;;;;;5072231;28;20532;-60
2022/02/02 20:16:34;;;;;;;10.27;6.63;;;9.90;93.90;;;;;;5070535;28;20115;-60
2022/02/02 20:19:04;;;;;;;9.20;5.72;;;9.90;94.10;;;;;;5064185;28;20099;-60
2022/02/02 20:21:34;;;;;;;9.30;6.00;;;9.90;94.30;;;;;;5064704;28;20365;-61
2022/02/02 20:24:02;;;;;;;13.20;7.80;;;9.90;94.80;;;;;;5037493;28;20052;-60
2022/02/02 20:26:29;;;;;;;13.75;8.40;;;9.90;95.00;;;;;;5056219;28;20083;-60
2022/02/02 20:28:55;;;;;;;13.98;8.73;;;9.90;95.70;;;;;;5045704;28;20473;-60
2022/02/02 20:31:22;;;;;;;14.25;8.30;;;9.90;96.20;;;;;;5051655;28;20037;-61
2022/02/02 20:33:47;;;;;;;12.68;8.48;;;9.90;96.70;;;;;;5051989;28;20033;-60
2022/02/02 20:36:13;;;;;;;16.30;9.80;;;9.90;97.10;;;;;;5065277;28;20062;-60
2022/02/02 20:38:39;;;;;;;17.20;10.90;;;9.90;97.50;;;;;;5072088;28;20020;-60
2022/02/02 20:41:05;;;;;;;18.17;10.65;;;9.90;98.00;;;;;;5071649;28;20032;-61
2022/02/02 21:05:23;;;;;;;24.20;15.40;;;9.80;99.90;;;;;;5071625;28;20518;-60
2022/02/02 21:10:17;;;;;;;26.98;16.00;;;9.80;99.90;;;;;;5070064;28;20028;-60
2022/02/02 21:15:30;;;;;;;27.35;16.98;;;9.80;99.90;;;;;;5070969;28;20572;-60
2022/02/02 21:18:00;;;;;;;25.85;15.35;;;9.80;99.90;;;;;;5071058;28;20432;-61
2022/02/02 21:20:39;;;;;;;21.75;13.57;;;9.80;99.90;;;;;;5068073;28;20024;-61
2022/02/02 21:23:12;;;;;;;24.05;14.73;;;9.80;99.90;;;;;;5069224;28;20489;-61
2022/02/02 21:26:49;;;;;;;27.67;17.52;;;9.80;99.90;;;;;;5062389;28;20107;-60
2022/02/02 21:28:35;;;;;;;24.95;15.48;;;9.70;99.90;;;;;;5060894;28;20039;-60
2022/02/02 21:31:01;;;;;;;25.83;15.75;;;9.70;99.90;;;;;;5069717;28;20035;-60
2022/02/02 21:33:28;;;;;;;28.33;16.85;;;9.70;99.90;;;;;;5071028;28;20028;-61
2022/02/02 21:35:55;;;;;;;28.80;16.58;;;9.70;99.90;;;;;;5070782;28;20028;-60
2022/02/02 21:40:51;;;;;;;26.58;16.60;;;9.80;99.90;;;;;;5070803;28;20052;-60
2022/02/02 21:43:17;;;;;;;23.73;14.95;;;9.80;99.90;;;;;;5069172;28;20025;-61
2022/02/02 21:45:42;;;;;;;31.27;19.23;;;9.80;99.90;;;;;;5070241;28;20024;-60
2022/02/02 21:48:08;;;;;;;25.75;16.83;;;9.70;99.90;;;;;;5070637;28;20472;-60
2022/02/02 21:50:48;;;;;;;31.63;18.00;;;9.70;99.90;;;;;;5070317;28;20071;-60
2022/02/02 21:53:14;;;;;;;24.38;14.50;;;9.60;99.90;;;;;;5069814;28;20035;-60
2022/02/02 21:55:40;;;;;;;26.92;17.00;;;9.60;99.90;;;;;;5070424;28;20037;-60
2022/02/02 21:58:05;;;;;;;29.42;17.77;;;9.60;99.90;;;;;;5070362;28;20031;-60
2022/02/02 22:00:31;;;;;;;29.35;17.92;;;9.60;99.90;;;;;;5070485;28;20040;-60
2022/02/02 22:02:57;;;;;;;28.83;18.23;;;9.60;99.90;;;;;;5075100;28;20025;-60
2022/02/02 22:05:22;;;;;;;29.48;18.95;;;9.60;99.90;;;;;;5082706;28;20032;-60
2022/02/02 22:07:48;;;;;;;29.98;19.70;;;9.60;99.90;;;;;;5055786;28;20024;-60
2022/02/02 22:10:16;;;;;;;32.35;20.88;;;9.60;99.90;;;;;;5059569;28;20048;-61
2022/02/02 22:12:41;;;;;;;32.13;20.90;;;9.60;99.90;;;;;;5057877;28;20108;-60
2022/02/02 22:15:12;;;;;;;30.85;19.90;;;9.60;99.90;;;;;;5066172;28;20096;-60
2022/02/02 22:17:38;;;;;;;31.33;20.92;;;9.60;99.90;;;;;;5061270;28;20024;-60
2022/02/02 22:20:07;;;;;;;35.08;23.13;;;9.60;99.90;;;;;;5060169;28;20033;-61
2022/02/02 22:22:33;;;;;;;37.58;23.92;;;9.60;99.90;;;;;;5063240;28;20020;-61
2022/02/02 22:25:00;;;;;;;33.75;22.92;;;9.60;99.90;;;;;;5059562;28;20040;-60
2022/02/02 22:27:26;;;;;;;32.47;22.08;;;9.60;99.90;;;;;;5066959;28;20502;-60
2022/02/02 22:29:51;;;;;;;32.25;22.08;;;9.60;99.90;;;;;;5064784;28;20100;-60
2022/02/02 22:32:17;;;;;;;31.10;21.35;;;9.60;99.90;;;;;;5059035;28;20028;-60
2022/02/02 22:34:42;;;;;;;33.50;22.23;;;9.60;99.90;;;;;;5071408;28;20042;-60
2022/02/02 22:37:10;;;;;;;36.00;23.55;;;9.60;99.90;;;;;;5068337;28;20032;-60
2022/02/02 22:39:40;;;;;;;30.15;20.73;;;9.60;99.90;;;;;;5065943;28;20012;-60
2022/02/02 22:42:06;;;;;;;31.55;21.13;;;9.60;99.90;;;;;;5068800;28;20139;-60
2022/02/02 22:44:32;;;;;;;31.95;22.88;;;9.60;99.90;;;;;;5060361;28;20027;-61
2022/02/02 22:47:03;;;;;;;30.42;21.23;;;9.60;99.90;;;;;;5063091;28;20033;-60
2022/02/02 22:49:29;;;;;;;27.60;20.10;;;9.50;99.90;;;;;;5065974;28;20108;-60
2022/02/02 22:51:55;;;;;;;32.47;21.45;;;9.60;99.90;;;;;;5063140;28;20100;-60
2022/02/02 22:54:21;;;;;;;29.40;21.95;;;9.60;99.90;;;;;;5053621;28;20104;-60
2022/02/02 22:57:06;;;;;;;26.05;20.02;;;9.60;99.90;;;;;;5068665;28;20071;-61
2022/02/02 22:59:34;;;;;;;32.30;21.63;;;9.60;99.90;;;;;;5065233;28;20055;-60
2022/02/02 23:02:09;;;;;;;27.67;19.92;;;9.50;99.90;;;;;;5063914;28;20032;-60
2022/02/02 23:04:35;;;;;;;29.10;20.10;;;9.50;99.90;;;;;;5061223;28;20035;-60
2022/02/02 23:07:03;;;;;;;28.05;20.67;;;9.60;99.90;;;;;;5056885;28;20029;-60
2022/02/02 23:09:29;;;;;;;29.10;20.50;;;9.60;99.90;;;;;;5067912;28;20074;-60
2022/02/02 23:11:55;;;;;;;28.85;21.40;;;9.60;99.90;;;;;;5068421;28;20023;-60
2022/02/02 23:14:25;;;;;;;27.60;20.45;;;9.60;99.90;;;;;;5065682;28;20070;-60
2022/02/02 23:16:53;;;;;;;27.70;20.55;;;9.60;99.90;;;;;;5067167;28;20495;-60
2022/02/02 23:19:19;;;;;;;26.15;19.88;;;9.60;99.90;;;;;;5060266;28;20021;-60
2022/02/02 23:21:47;;;;;;;27.77;21.48;;;9.60;99.90;;;;;;5054697;28;20439;-60
2022/02/02 23:24:15;;;;;;;25.77;20.63;;;9.60;99.90;;;;;;5054999;28;20021;-60